Monday, February 18, 2019, 5:27 AM EST
Back to Local

KJFK, Kennedy International Airport

Location: Rosedale, NY, United States Lat: 40.633
Local Time: 5:27 AM EST (10:27 GMT) Lon: -73.767
Time Zone: US/Eastern Elev: 13 ft

Show me the last for .
Show Decoded

2019-02-18 04:51 METAR KJFK 180951Z 06007KT 4SM -RA BR OVC005 01/01 A2980 RMK AO2 RAB0853 SLP089
                 P0001 T00110011 $ =
2019-02-18 03:51 METAR KJFK 180851Z COR 02008KT 4SM BR BKN005 OVC013 01/01 A2986 RMK AO2 SLP110
                 RAB0754E51 P0000 60000 T00110011 56016 $ =
2019-02-18 02:51 METAR KJFK 180751Z 06008KT 4SM BR FEW005 OVC011 01/01 A2987 RMK AO2 SLP113
                 RAB17E33 P0000 T00060006 $ =
2019-02-18 02:45 METAR KJFK 180745Z 05008KT 4SM BR FEW005 OVC011 01/01 A2987 RMK AO2 PRESFR
                 RAB17E33 P0000 $ =
2019-02-18 01:51 METAR KJFK 180651Z 07006KT 8SM OVC011 01/01 A2991 RMK AO2 SLP127 T00060006 $ =
2019-02-18 01:40 METAR KJFK 180640Z 05006KT 8SM OVC011 01/01 A2993 RMK AO2 T00110006 $ =
2019-02-18 00:51 METAR KJFK 180551Z 08005KT 10SM FEW008 OVC026 01/01 A2995 RMK AO2 SLP140 P0001
                 60005 T00110006 10017 20011 56030 $ =
2019-02-17 23:51 METAR KJFK 180451Z 08004KT 10SM FEW009 OVC027 01/01 A2996 RMK AO2 RAE48 SLP145
                 P0002 T00110006 400221039 $ =
2019-02-17 23:49 METAR KJFK 180449Z 06004KT 10SM FEW009 OVC027 01/01 A2997 RMK AO2 RAE48 P0002 $
                 =
2019-02-17 22:51 METAR KJFK 180351Z 00000KT 9SM -RA FEW012 OVC050 01/01 A2998 RMK AO2 SLP153
                 P0002 T00110006 $ =
2019-02-17 21:51 METAR KJFK 180251Z 14004KT 10SM -RA FEW022 OVC050 02/M01 A3004 RMK AO2 RAB0157
                 SLP170 P0000 60000 T00171011 55014 $ =
2019-02-17 20:51 METAR KJFK 180151Z 12007KT 10SM FEW025 OVC055 01/M03 A3000 RMK AO2 SLP160
                 T00111028 $ =
2019-02-17 19:51 METAR KJFK 180051Z 16007KT 10SM FEW027 OVC055 01/M04 A3004 RMK AO2 SLP173
                 T00111044 $ =
2019-02-17 18:51 METAR KJFK 172351Z 17009KT 10SM FEW030 OVC055 01/M05 A3008 RMK AO2 SLP184
                 T00061050 10011 20000 51006 $ =
2019-02-17 17:51 METAR KJFK 172251Z 17006KT 10SM FEW030 BKN060 OVC170 01/M05 A3008 RMK AO2 SLP184
                 T00061050 $ =
2019-02-17 16:51 METAR KJFK 172151Z 16005KT 10SM FEW180 BKN250 00/M06 A3007 RMK AO2 SLP182
                 T00001056 $ =
2019-02-17 15:51 METAR KJFK 172051Z 15009KT 10SM FEW055 FEW170 BKN250 01/M06 A3006 RMK AO2 SLP178
                 T00061061 56043 $ =
2019-02-17 14:51 METAR KJFK 171951Z 17010KT 10SM FEW100 BKN170 BKN230 01/M06 A3010 RMK AO2 SLP194
                 T00061061 $ =
2019-02-17 13:51 METAR KJFK 171851Z 19006KT 10SM FEW040 FEW130 BKN170 BKN250 00/M07 A3013 RMK AO2
                 SLP203 T00001072 $ =
2019-02-17 12:51 METAR KJFK 171751Z 19011KT 10SM FEW040 FEW150 BKN230 BKN270 01/M07 A3019 RMK AO2
                 SLP221 T00061067 10022 21039 53011 $ =
2019-02-17 11:51 METAR KJFK 171651Z VRB05KT 10SM FEW040 FEW240 BKN270 02/M09 A3012 RMK AO2 SLP198
                 T00171094 $ =
2019-02-17 10:51 METAR KJFK 171551Z 00000KT 10SM FEW040 FEW240 SCT270 01/M10 A3016 RMK AO2 SLP213
                 T00111100 $ =
2019-02-17 09:51 METAR KJFK 171451Z 04010KT 10SM FEW035 FEW240 SCT270 00/M10 A3015 RMK AO2 SLP210
                 T00001100 50013 $ =
2019-02-17 08:51 METAR KJFK 171351Z 36010KT 10SM FEW035 SCT240 BKN270 M01/M10 A3019 RMK AO2
                 SLP221 T10111100 $ =
2019-02-17 07:51 METAR KJFK 171251Z 02009KT 10SM FEW035 SCT250 M03/M09 A3016 RMK AO2 SLP214
                 T10281094 $ =
2019-02-17 06:51 METAR KJFK 171151Z 01009KT 10SM FEW035 FEW250 M04/M10 A3012 RMK AO2 SLP198
                 T10391100 11011 21039 51014 $ =
2019-02-17 05:51 METAR KJFK 171051Z 36012KT 10SM CLR M03/M10 A3010 RMK AO2 SLP193 T10331100 $ =

Support USWX by starting your Amazon purchase here.